Time;durP1;ratioP1;P1;durP2;ratioP2;P2;SDS_P1;SDS_P2;PMS_P1;PMS_P2;Temp;Humidity;BMP_temperature;BMP_pressure;BME280_temperature;BME280_humidity;BME280_pressure;Samples;Min_cycle;Max_cycle;Signal;HPM_P1;HPM_P2
2022/06/13 00:00:15;;;;;;;3.60;1.75;;;18.60;99.90;;;;;;4947990;28;20038;-71
2022/06/13 00:02:41;;;;;;;2.97;1.73;;;18.50;99.90;;;;;;4948374;28;20035;-71
2022/06/13 00:05:08;;;;;;;7.32;2.05;;;18.50;99.90;;;;;;4952157;28;20025;-71
2022/06/13 00:07:34;;;;;;;2.95;1.98;;;18.40;99.90;;;;;;4954680;28;20117;-71
2022/06/13 00:10:00;;;;;;;3.30;2.17;;;18.40;99.90;;;;;;4948214;28;20031;-71
2022/06/13 00:12:29;;;;;;;4.25;1.92;;;18.50;99.90;;;;;;4948764;28;20086;-71
2022/06/13 00:14:55;;;;;;;6.63;2.45;;;18.50;99.90;;;;;;4948072;28;20797;-71
2022/06/13 00:17:20;;;;;;;2.03;1.67;;;18.50;99.90;;;;;;4953708;28;20039;-72
2022/06/13 00:19:49;;;;;;;3.08;1.50;;;18.50;99.90;;;;;;4946174;28;20430;-71
2022/06/13 00:22:18;;;;;;;4.38;1.88;;;18.40;99.90;;;;;;4948475;28;20118;-71
2022/06/13 00:24:44;;;;;;;2.47;1.80;;;18.40;99.90;;;;;;4946330;28;20368;-71
2022/06/13 00:27:16;;;;;;;5.88;2.38;;;18.40;99.90;;;;;;4949787;28;20031;-71
2022/06/13 00:29:47;;;;;;;3.03;1.50;;;18.40;99.90;;;;;;4952878;28;20066;-72
2022/06/13 00:32:16;;;;;;;3.38;1.50;;;18.40;99.90;;;;;;4947679;28;20027;-72
2022/06/13 00:34:47;;;;;;;5.75;1.75;;;18.30;99.90;;;;;;4949146;28;20045;-71
2022/06/13 00:37:13;;;;;;;3.72;1.50;;;18.30;99.90;;;;;;4948952;28;20114;-71
2022/06/13 00:39:50;;;;;;;2.53;1.52;;;18.40;99.90;;;;;;4941609;28;20123;-72
2022/06/13 00:42:19;;;;;;;2.35;1.50;;;18.40;99.90;;;;;;4947835;28;20507;-72
2022/06/13 00:45:15;;;;;;;2.05;1.17;;;18.40;99.90;;;;;;4944619;28;20420;-72
2022/06/13 00:47:43;;;;;;;3.08;1.50;;;18.30;99.90;;;;;;4945500;28;20414;-72
2022/06/13 00:50:14;;;;;;;4.03;1.25;;;18.40;99.90;;;;;;4960540;28;20416;-72
2022/06/13 00:52:48;;;;;;;5.47;1.60;;;18.30;99.90;;;;;;4947910;28;20512;-72
2022/06/13 00:55:20;;;;;;;3.65;1.35;;;18.30;99.90;;;;;;4946398;28;21251;-73
2022/06/13 00:57:53;;;;;;;5.55;1.60;;;18.30;99.90;;;;;;4947392;28;20094;-72
2022/06/13 01:00:20;;;;;;;4.90;1.60;;;18.30;99.90;;;;;;4946886;28;20034;-73
2022/06/13 01:02:51;;;;;;;3.97;1.50;;;18.30;99.90;;;;;;4960104;28;20036;-71
2022/06/13 01:05:20;;;;;;;4.50;1.23;;;18.30;99.90;;;;;;4946511;28;20019;-71
2022/06/13 01:07:47;;;;;;;2.58;1.40;;;18.30;99.90;;;;;;4947598;28;20023;-72
2022/06/13 01:12:57;;;;;;;5.03;1.30;;;18.30;99.90;;;;;;4945556;28;20031;-70
2022/06/13 01:15:26;;;;;;;2.90;1.30;;;18.30;99.90;;;;;;4944394;28;20102;-70
2022/06/13 01:18:00;;;;;;;2.38;1.27;;;18.30;99.90;;;;;;4951312;28;20078;-71
2022/06/13 01:20:54;;;;;;;3.33;1.40;;;18.20;99.90;;;;;;4941821;28;20886;-73
2022/06/13 01:23:57;;;;;;;3.13;1.42;;;18.30;99.90;;;;;;4948861;28;20029;-70
2022/06/13 01:26:45;;;;;;;3.75;1.83;;;18.20;99.90;;;;;;4946719;28;20393;-70
2022/06/13 01:29:44;;;;;;;2.35;1.50;;;18.20;99.90;;;;;;4946722;28;20023;-71
2022/06/13 01:32:33;;;;;;;4.22;1.63;;;18.20;99.90;;;;;;4944758;28;20043;-71
2022/06/13 01:35:28;;;;;;;2.42;1.80;;;18.20;99.90;;;;;;4960520;28;20062;-71
2022/06/13 01:38:14;;;;;;;2.85;1.90;;;18.10;99.90;;;;;;4943139;28;20416;-70
2022/06/13 01:40:58;;;;;;;5.20;1.65;;;18.10;99.90;;;;;;4948407;28;20128;-74
2022/06/13 01:43:24;;;;;;;2.10;1.52;;;18.10;99.90;;;;;;4949231;28;20388;-74
2022/06/13 01:46:08;;;;;;;3.42;1.77;;;18.10;99.90;;;;;;4949829;28;20039;-74
2022/06/13 01:49:09;;;;;;;4.25;1.85;;;18.10;99.90;;;;;;4942391;28;20139;-73
2022/06/13 01:52:16;;;;;;;6.60;2.35;;;18.10;99.90;;;;;;4946564;28;20519;-73
2022/06/13 01:54:52;;;;;;;3.72;1.45;;;18.00;99.90;;;;;;4946110;28;20152;-73
2022/06/13 01:57:33;;;;;;;4.03;2.10;;;18.10;99.90;;;;;;4941117;28;20038;-73
2022/06/13 02:00:13;;;;;;;3.40;1.50;;;18.10;99.90;;;;;;4942993;28;20366;-73
2022/06/13 02:02:53;;;;;;;2.75;1.80;;;18.10;99.90;;;;;;4942534;28;20067;-74
2022/06/13 02:05:46;;;;;;;3.35;1.85;;;18.10;99.90;;;;;;4945493;28;20409;-73
2022/06/13 02:08:17;;;;;;;2.90;1.77;;;18.00;99.90;;;;;;4948487;28;20031;-72
2022/06/13 02:11:09;;;;;;;3.13;1.60;;;18.00;99.90;;;;;;4944167;28;20050;-73
2022/06/13 02:13:37;;;;;;;4.18;1.80;;;18.00;99.90;;;;;;4937710;28;20035;-72
2022/06/13 02:16:10;;;;;;;4.65;1.60;;;17.90;99.90;;;;;;4943053;28;20473;-72
2022/06/13 02:18:54;;;;;;;3.60;1.73;;;18.00;99.90;;;;;;4945674;28;20042;-72
2022/06/13 02:21:23;;;;;;;5.47;1.55;;;18.00;99.90;;;;;;4948847;28;20493;-72
2022/06/13 02:23:57;;;;;;;3.58;2.00;;;18.00;99.90;;;;;;4945158;28;20043;-72
2022/06/13 02:26:29;;;;;;;1.98;1.60;;;17.90;99.90;;;;;;4945014;28;20035;-72
2022/06/13 02:29:01;;;;;;;4.57;1.83;;;17.90;99.90;;;;;;4945538;28;20123;-72
2022/06/13 02:31:44;;;;;;;3.60;2.25;;;17.90;99.90;;;;;;4949471;28;20641;-73
2022/06/13 02:34:22;;;;;;;3.85;2.28;;;18.00;99.90;;;;;;4949346;28;20047;-73
2022/06/13 02:36:51;;;;;;;3.85;2.25;;;18.00;99.90;;;;;;4947396;28;20039;-72
2022/06/13 02:39:38;;;;;;;4.28;2.60;;;18.00;99.90;;;;;;4952297;28;20049;-72
2022/06/13 02:42:29;;;;;;;4.80;2.40;;;18.00;99.90;;;;;;4965380;28;20031;-71
2022/06/13 02:45:09;;;;;;;2.63;1.83;;;18.00;99.90;;;;;;4947225;28;20082;-72
2022/06/13 02:47:59;;;;;;;4.80;2.35;;;18.00;99.90;;;;;;4964940;28;20051;-73
2022/06/13 02:51:02;;;;;;;6.55;2.50;;;18.00;99.90;;;;;;4951995;28;20039;-73
2022/06/13 02:53:51;;;;;;;4.93;2.25;;;18.00;99.90;;;;;;4957375;28;20039;-72
2022/06/13 02:56:31;;;;;;;3.42;2.13;;;18.00;99.90;;;;;;4951794;28;20031;-72
2022/06/13 02:59:24;;;;;;;5.40;2.72;;;18.00;99.90;;;;;;4960996;28;20488;-73
2022/06/13 03:01:54;;;;;;;4.00;2.60;;;18.00;99.90;;;;;;4950323;28;20488;-71
2022/06/13 03:04:33;;;;;;;5.88;2.85;;;18.00;99.90;;;;;;4946364;28;20067;-71
2022/06/13 03:07:35;;;;;;;4.72;2.53;;;18.00;99.90;;;;;;4948280;28;20362;-72
2022/06/13 03:10:12;;;;;;;5.88;2.67;;;18.00;99.90;;;;;;4946290;28;20031;-73
2022/06/13 03:13:03;;;;;;;3.20;2.38;;;18.00;99.90;;;;;;4949065;28;20131;-72
2022/06/13 03:15:42;;;;;;;4.63;2.45;;;18.00;99.90;;;;;;4954236;28;20035;-73
2022/06/13 03:18:14;;;;;;;5.63;2.83;;;18.00;99.90;;;;;;4948060;28;20370;-72
2022/06/13 03:20:42;;;;;;;4.70;2.78;;;17.90;99.90;;;;;;4950734;28;20035;-72
2022/06/13 03:23:20;;;;;;;4.18;2.55;;;17.90;99.90;;;;;;4953887;28;20054;-72
2022/06/13 03:25:54;;;;;;;4.18;2.50;;;18.00;99.90;;;;;;4950431;28;20034;-73
2022/06/13 03:28:23;;;;;;;3.75;2.47;;;18.00;99.90;;;;;;4950517;28;20028;-72
2022/06/13 03:31:03;;;;;;;4.47;2.60;;;18.00;99.90;;;;;;4954838;28;20545;-72
2022/06/13 03:33:42;;;;;;;4.55;2.85;;;17.90;99.90;;;;;;4947865;28;20035;-73
2022/06/13 03:36:12;;;;;;;5.63;2.88;;;18.00;99.90;;;;;;4946814;28;20034;-72
2022/06/13 03:38:47;;;;;;;5.55;2.58;;;18.00;99.90;;;;;;4952366;28;20043;-72
2022/06/13 03:41:21;;;;;;;3.97;2.50;;;18.00;99.90;;;;;;4945718;28;20126;-73
2022/06/13 03:44:28;;;;;;;5.32;2.60;;;18.00;99.90;;;;;;4948153;28;20035;-72
2022/06/13 03:46:58;;;;;;;5.97;2.83;;;18.00;99.90;;;;;;4948155;28;20617;-72
2022/06/13 03:49:56;;;;;;;4.38;2.72;;;18.00;99.90;;;;;;4946806;28;20038;-72
2022/06/13 03:52:29;;;;;;;2.58;2.15;;;18.00;99.90;;;;;;4946432;28;20055;-72
2022/06/13 03:55:01;;;;;;;6.83;2.80;;;18.10;99.90;;;;;;4950153;28;20500;-72
2022/06/13 03:57:32;;;;;;;7.35;2.38;;;18.10;99.90;;;;;;4952703;28;20285;-71
2022/06/13 04:00:14;;;;;;;2.53;1.80;;;18.20;99.90;;;;;;4945013;28;20038;-70
2022/06/13 04:02:42;;;;;;;2.50;2.08;;;18.20;99.90;;;;;;4964849;28;20042;-71
2022/06/13 04:05:40;;;;;;;5.43;2.40;;;18.20;99.90;;;;;;4948638;28;20024;-72
2022/06/13 04:08:08;;;;;;;3.83;1.70;;;18.20;99.90;;;;;;4944527;28;20099;-71
2022/06/13 04:10:50;;;;;;;3.25;1.90;;;18.10;99.90;;;;;;4950849;28;20034;-71
2022/06/13 04:13:47;;;;;;;2.88;1.55;;;18.10;99.90;;;;;;4950682;28;20036;-70
2022/06/13 04:16:41;;;;;;;4.20;2.22;;;18.10;99.90;;;;;;4951995;28;20035;-70
2022/06/13 04:19:42;;;;;;;3.30;2.10;;;18.10;99.90;;;;;;4948978;28;20023;-71
2022/06/13 04:22:20;;;;;;;6.70;2.97;;;18.10;99.90;;;;;;4967094;28;20086;-71
2022/06/13 04:24:58;;;;;;;4.90;2.83;;;18.10;99.90;;;;;;4949111;28;20030;-70
2022/06/13 04:27:26;;;;;;;3.88;2.15;;;18.10;99.90;;;;;;4946480;28;20487;-70
2022/06/13 04:30:10;;;;;;;4.18;2.75;;;18.20;99.90;;;;;;4965786;28;20037;-71
2022/06/13 04:32:56;;;;;;;4.25;2.65;;;18.20;99.90;;;;;;4951498;28;20039;-71
2022/06/13 04:35:23;;;;;;;4.93;2.70;;;18.20;99.90;;;;;;4952653;28;20081;-71
2022/06/13 04:37:50;;;;;;;6.20;2.92;;;18.20;99.90;;;;;;4950896;28;20027;-71
2022/06/13 04:40:25;;;;;;;6.70;2.40;;;18.20;99.90;;;;;;4948362;28;20035;-71
2022/06/13 04:42:51;;;;;;;7.35;2.70;;;18.20;99.90;;;;;;4951621;28;20082;-71
2022/06/13 04:45:25;;;;;;;9.93;3.10;;;18.10;99.90;;;;;;4946175;28;20095;-71
2022/06/13 04:47:57;;;;;;;7.90;2.28;;;18.20;99.90;;;;;;4952264;28;20388;-71
2022/06/13 04:50:34;;;;;;;10.93;2.88;;;18.40;99.90;;;;;;4944874;28;20544;-71
2022/06/13 04:53:08;;;;;;;6.93;2.38;;;18.50;99.90;;;;;;4951353;28;20102;-71
2022/06/13 04:55:45;;;;;;;7.60;2.80;;;18.60;99.90;;;;;;4952735;28;20515;-71
2022/06/13 04:58:23;;;;;;;5.57;2.90;;;18.80;99.90;;;;;;4946394;28;20039;-70
2022/06/13 05:00:56;;;;;;;6.35;2.67;;;18.90;99.90;;;;;;4941906;28;20041;-71
2022/06/13 05:03:25;;;;;;;;;;;19.20;99.90;;;;;;4946028;28;20027;-72
2022/06/13 05:05:54;;;;;;;6.25;2.90;;;19.40;99.90;;;;;;4945358;28;20368;-71
2022/06/13 05:08:29;;;;;;;5.95;2.47;;;19.50;99.90;;;;;;4962502;28;20078;-71
2022/06/13 05:11:17;;;;;;;8.25;2.47;;;19.50;99.90;;;;;;4942783;28;20032;-72
2022/06/13 05:13:50;;;;;;;5.03;2.22;;;19.50;99.90;;;;;;4957774;28;20166;-69
2022/06/13 05:16:35;;;;;;;14.10;3.10;;;19.50;99.90;;;;;;4949245;28;20042;-68
2022/06/13 05:19:09;;;;;;;6.47;2.15;;;19.50;99.90;;;;;;4944745;28;20027;-69
2022/06/13 05:22:09;;;;;;;5.40;2.55;;;19.40;99.90;;;;;;4947371;28;20031;-69
2022/06/13 05:24:52;;;;;;;5.97;2.40;;;19.30;99.90;;;;;;4947456;28;20023;-69
2022/06/13 05:27:18;;;;;;;6.75;2.33;;;19.30;99.90;;;;;;4947799;28;20019;-68
2022/06/13 05:29:47;;;;;;;5.78;2.30;;;19.30;99.90;;;;;;4943393;28;20417;-69
2022/06/13 05:32:14;;;;;;;5.15;2.30;;;19.40;99.90;;;;;;4943931;28;20530;-69
2022/06/13 05:34:47;;;;;;;7.55;2.58;;;19.40;99.90;;;;;;4944686;28;20370;-69
2022/06/13 05:37:14;;;;;;;12.77;2.75;;;19.30;99.90;;;;;;4944023;28;20398;-69
2022/06/13 05:39:40;;;;;;;4.82;2.50;;;19.30;99.90;;;;;;4949933;28;20049;-70
2022/06/13 05:42:06;;;;;;;6.68;2.15;;;19.20;99.90;;;;;;4946691;28;20020;-70
2022/06/13 05:44:32;;;;;;;8.23;2.28;;;19.20;99.90;;;;;;4942383;28;20043;-70
2022/06/13 05:46:58;;;;;;;9.43;2.47;;;19.20;99.90;;;;;;4946304;28;20102;-70
2022/06/13 05:49:24;;;;;;;7.63;2.05;;;19.20;99.90;;;;;;4948697;28;20078;-68
2022/06/13 05:51:49;;;;;;;4.95;2.35;;;19.20;99.90;;;;;;4942915;28;20034;-70
2022/06/13 05:54:15;;;;;;;7.50;2.13;;;19.10;99.90;;;;;;4946387;28;20480;-67
2022/06/13 05:56:41;;;;;;;10.32;2.80;;;19.10;99.90;;;;;;4946950;28;20042;-74
2022/06/13 05:59:09;;;;;;;10.70;2.65;;;19.30;99.90;;;;;;4946733;28;20636;-73
2022/06/13 06:01:41;;;;;;;4.32;2.40;;;19.30;99.90;;;;;;4944426;28;20031;-73
2022/06/13 06:04:07;;;;;;;10.40;3.20;;;19.30;99.90;;;;;;4945610;28;20029;-73
2022/06/13 06:06:34;;;;;;;6.78;2.33;;;19.30;99.90;;;;;;4947571;28;20102;-73
2022/06/13 06:09:00;;;;;;;5.43;1.88;;;19.40;99.90;;;;;;4951775;28;20082;-73
2022/06/13 06:11:29;;;;;;;11.00;3.13;;;19.50;99.90;;;;;;4949397;28;20933;-73
2022/06/13 06:13:55;;;;;;;10.60;2.15;;;19.60;99.90;;;;;;4953416;28;20399;-73
2022/06/13 06:16:23;;;;;;;7.55;2.85;;;19.60;99.90;;;;;;4946177;28;20432;-73
2022/06/13 06:18:50;;;;;;;6.43;2.55;;;19.70;99.90;;;;;;4950005;28;20073;-72
2022/06/13 06:21:15;;;;;;;6.05;2.15;;;19.60;99.90;;;;;;4945422;28;20500;-73
2022/06/13 06:23:44;;;;;;;8.90;3.08;;;19.70;99.90;;;;;;4944542;28;20042;-73
2022/06/13 06:26:13;;;;;;;7.47;2.47;;;19.80;99.90;;;;;;4950018;28;20438;-73
2022/06/13 06:28:38;;;;;;;8.88;2.78;;;19.70;99.90;;;;;;4951620;28;20034;-72
2022/06/13 06:31:04;;;;;;;4.47;2.38;;;19.70;99.90;;;;;;4946039;28;20027;-71
2022/06/13 06:33:32;;;;;;;11.43;3.08;;;19.80;99.90;;;;;;4945777;28;20043;-73
2022/06/13 06:35:58;;;;;;;13.15;2.58;;;19.70;99.90;;;;;;4946303;28;20073;-73
2022/06/13 06:38:26;;;;;;;6.70;2.05;;;19.80;99.90;;;;;;4944157;28;20031;-74
2022/06/13 06:40:52;;;;;;;5.95;2.47;;;19.60;99.90;;;;;;4943996;28;20062;-72
2022/06/13 06:43:18;;;;;;;8.05;2.80;;;19.70;99.90;;;;;;4949860;28;20078;-74
2022/06/13 06:45:44;;;;;;;8.95;2.70;;;19.60;99.90;;;;;;4946126;28;20464;-72
2022/06/13 06:48:18;;;;;;;7.38;2.50;;;19.70;99.90;;;;;;4944379;28;20024;-72
2022/06/13 06:50:45;;;;;;;12.45;3.13;;;19.80;99.90;;;;;;4946794;28;20536;-72
2022/06/13 06:53:15;;;;;;;8.75;2.78;;;19.70;99.90;;;;;;4962519;28;20194;-72
2022/06/13 07:01:12;;;;;;;9.73;2.80;;;19.80;99.90;;;;;;4941074;28;19933;-71
2022/06/13 07:03:41;;;;;;;8.80;2.70;;;19.90;99.90;;;;;;4943027;28;20035;-72
2022/06/13 07:06:11;;;;;;;5.75;2.28;;;19.90;99.90;;;;;;4945928;28;20449;-72
2022/06/13 07:08:37;;;;;;;6.97;3.05;;;19.80;99.90;;;;;;4943226;28;20106;-73
2022/06/13 07:13:54;;;;;;;10.95;2.90;;;19.60;99.90;;;;;;4944300;28;20046;-72
2022/06/13 07:16:22;;;;;;;6.47;2.55;;;19.40;99.90;;;;;;4949954;28;20118;-72
2022/06/13 07:18:57;;;;;;;12.02;3.17;;;19.50;99.90;;;;;;4948962;28;20027;-72
2022/06/13 07:21:23;;;;;;;9.02;3.08;;;19.70;99.90;;;;;;4952520;28;20055;-70
2022/06/13 07:23:48;;;;;;;10.48;2.92;;;19.70;99.90;;;;;;4949893;28;20031;-72
2022/06/13 07:26:20;;;;;;;8.82;2.50;;;19.60;99.90;;;;;;4952042;28;20122;-72
2022/06/13 07:28:49;;;;;;;9.35;2.95;;;19.60;99.90;;;;;;4951148;28;20026;-72
2022/06/13 07:31:30;;;;;;;8.85;2.72;;;19.60;99.90;;;;;;4950069;28;20027;-72
2022/06/13 07:33:56;;;;;;;7.93;2.25;;;19.70;99.90;;;;;;4949696;28;20031;-73
2022/06/13 07:36:21;;;;;;;11.57;2.70;;;19.80;99.90;;;;;;4954543;28;20469;-73
2022/06/13 07:38:48;;;;;;;8.82;2.63;;;19.80;99.90;;;;;;4950367;28;20093;-72
2022/06/13 07:41:21;;;;;;;9.23;2.80;;;19.90;99.90;;;;;;4943557;28;20038;-73
2022/06/13 07:43:51;;;;;;;8.52;3.05;;;20.00;99.90;;;;;;4952443;28;20128;-73
2022/06/13 07:46:18;;;;;;;7.45;2.33;;;20.00;99.30;;;;;;4948339;28;20035;-74
2022/06/13 07:48:47;;;;;;;9.55;2.67;;;20.00;99.00;;;;;;4949475;28;20023;-72
2022/06/13 07:51:13;;;;;;;8.38;2.85;;;20.10;98.40;;;;;;4945310;28;20031;-72
2022/06/13 07:53:42;;;;;;;9.95;2.70;;;20.00;97.30;;;;;;4947606;28;20175;-73
2022/06/13 07:56:12;;;;;;;7.15;2.42;;;20.00;97.50;;;;;;4947577;28;20054;-72
2022/06/13 07:58:42;;;;;;;6.82;2.83;;;19.80;98.00;;;;;;4949265;28;20043;-72
2022/06/13 08:01:10;;;;;;;10.57;2.58;;;19.90;98.60;;;;;;4935096;28;20089;-72
2022/06/13 08:03:36;;;;;;;10.77;2.67;;;20.00;98.70;;;;;;4938201;28;20346;-73
2022/06/13 08:06:05;;;;;;;8.70;2.53;;;20.10;98.50;;;;;;4945054;28;20031;-72
2022/06/13 08:08:35;;;;;;;11.48;3.10;;;20.20;98.20;;;;;;4944287;28;20027;-73
2022/06/13 08:11:03;;;;;;;5.70;2.65;;;20.30;98.00;;;;;;4943876;28;20042;-72
2022/06/13 08:13:30;;;;;;;7.50;3.28;;;20.30;97.70;;;;;;4952145;28;20054;-72
2022/06/13 08:15:56;;;;;;;9.20;3.28;;;20.30;97.10;;;;;;4942602;28;20508;-73
2022/06/13 08:18:22;;;;;;;11.70;2.88;;;20.30;97.20;;;;;;4945114;28;20042;-73
2022/06/13 08:20:48;;;;;;;5.47;2.47;;;20.30;97.30;;;;;;4943245;28;20023;-73
2022/06/13 08:23:15;;;;;;;7.15;2.50;;;20.40;97.60;;;;;;4943388;28;20279;-73
2022/06/13 08:25:42;;;;;;;9.57;3.38;;;20.50;97.60;;;;;;4942382;28;20040;-74
2022/06/13 08:28:09;;;;;;;7.55;2.75;;;20.50;97.50;;;;;;4942364;28;20032;-73
2022/06/13 08:30:53;;;;;;;7.63;2.38;;;20.50;97.50;;;;;;4944285;28;20035;-73
2022/06/13 08:33:21;;;;;;;9.60;2.50;;;20.60;97.30;;;;;;4947555;28;20098;-73
2022/06/13 08:35:47;;;;;;;8.52;3.13;;;20.70;97.50;;;;;;4945054;28;20074;-73
2022/06/13 08:38:20;;;;;;;10.07;3.03;;;20.70;97.40;;;;;;4936689;28;20031;-72
2022/06/13 08:41:10;;;;;;;8.90;2.97;;;20.70;97.30;;;;;;4938325;28;20042;-73
2022/06/13 08:43:58;;;;;;;5.75;2.72;;;20.70;96.50;;;;;;4946499;28;20050;-69
2022/06/13 08:46:42;;;;;;;7.78;2.90;;;20.80;96.60;;;;;;4947400;28;20020;-72
2022/06/13 08:49:21;;;;;;;5.28;2.38;;;21.00;96.60;;;;;;4947776;28;20106;-73
2022/06/13 08:52:10;;;;;;;10.45;2.75;;;21.00;95.70;;;;;;4946799;28;20438;-71
2022/06/13 08:54:45;;;;;;;8.77;2.42;;;21.10;95.40;;;;;;4950508;28;20031;-72
2022/06/13 08:57:11;;;;;;;7.53;2.30;;;21.20;95.10;;;;;;4961176;28;20019;-73
2022/06/13 09:00:14;;;;;;;7.57;2.50;;;21.30;94.40;;;;;;4948947;28;20063;-71
2022/06/13 09:03:06;;;;;;;10.60;3.55;;;21.30;94.30;;;;;;4947007;28;20118;-73
2022/06/13 09:05:41;;;;;;;10.38;2.40;;;21.40;94.30;;;;;;4950664;28;20027;-74
2022/06/13 09:08:13;;;;;;;9.43;2.40;;;21.50;93.90;;;;;;4945938;28;20488;-74
2022/06/13 09:10:51;;;;;;;8.52;2.40;;;21.50;93.70;;;;;;4945978;28;20099;-74
2022/06/13 09:13:42;;;;;;;4.88;2.33;;;21.50;93.50;;;;;;4948590;28;20128;-76
2022/06/13 09:16:23;;;;;;;10.93;2.58;;;21.40;93.70;;;;;;4963809;28;20070;-71
2022/06/13 09:19:14;;;;;;;8.00;2.55;;;21.40;94.30;;;;;;4944500;28;20083;-74
2022/06/13 09:21:58;;;;;;;12.07;4.88;;;21.50;93.90;;;;;;4929917;28;20069;-76
2022/06/13 09:24:54;;;;;;;8.43;3.05;;;21.50;93.00;;;;;;4946085;28;20043;-75
2022/06/13 09:27:29;;;;;;;8.25;2.33;;;21.60;93.30;;;;;;4944251;28;20050;-74
2022/06/13 09:30:04;;;;;;;6.38;2.20;;;21.70;93.00;;;;;;4945460;28;20031;-75
2022/06/13 09:32:51;;;;;;;7.72;2.80;;;21.80;91.90;;;;;;4945834;28;20027;-73
2022/06/13 09:35:19;;;;;;;5.82;2.25;;;21.80;90.60;;;;;;4945072;28;20033;-75
2022/06/13 09:37:48;;;;;;;9.40;2.33;;;21.70;90.40;;;;;;4947772;28;20033;-74
2022/06/13 09:40:21;;;;;;;4.35;1.80;;;21.60;90.80;;;;;;4939844;28;20034;-74
2022/06/13 09:43:10;;;;;;;5.35;2.30;;;21.50;89.10;;;;;;4951802;28;20543;-75
2022/06/13 09:46:17;;;;;;;7.60;2.10;;;21.50;87.50;;;;;;4958361;28;20042;-75
2022/06/13 09:49:04;;;;;;;6.70;2.00;;;21.50;86.70;;;;;;4944103;28;20406;-75
2022/06/13 09:51:36;;;;;;;5.25;2.05;;;21.60;86.60;;;;;;4945857;28;20054;-77
2022/06/13 09:54:23;;;;;;;5.70;1.90;;;21.70;86.70;;;;;;4945098;28;20054;-74
2022/06/13 09:57:18;;;;;;;5.70;2.03;;;21.80;87.50;;;;;;4940731;28;20035;-74
2022/06/13 09:59:55;;;;;;;6.20;1.95;;;22.00;86.80;;;;;;4944575;28;20026;-71
2022/06/13 10:02:29;;;;;;;3.58;2.08;;;22.00;85.30;;;;;;4944944;28;20031;-73
2022/06/13 10:05:14;;;;;;;5.68;2.25;;;22.10;84.00;;;;;;4939481;28;20102;-74
2022/06/13 10:07:50;;;;;;;8.15;2.25;;;21.90;83.60;;;;;;4949410;28;20031;-74
2022/06/13 10:10:37;;;;;;;11.98;5.15;;;21.90;83.90;;;;;;4948371;28;20059;-74
2022/06/13 10:13:34;;;;;;;9.38;2.90;;;21.60;84.20;;;;;;4944962;28;20429;-74
2022/06/13 10:16:09;;;;;;;10.88;3.10;;;21.60;85.30;;;;;;4934938;28;20074;-74
2022/06/13 10:18:55;;;;;;;7.07;2.05;;;21.60;85.70;;;;;;4940692;28;20496;-74
2022/06/13 10:21:30;;;;;;;6.80;2.08;;;21.40;84.30;;;;;;4940981;28;20062;-72
2022/06/13 10:24:26;;;;;;;5.70;2.15;;;21.40;83.00;;;;;;4948323;28;20019;-74
2022/06/13 10:27:06;;;;;;;7.40;1.92;;;21.50;82.30;;;;;;4948337;28;20041;-73
2022/06/13 10:29:38;;;;;;;5.05;2.10;;;21.40;80.70;;;;;;4950875;28;20027;-75
2022/06/13 10:32:37;;;;;;;4.95;1.77;;;21.50;80.90;;;;;;4945190;28;20031;-74
2022/06/13 10:35:22;;;;;;;3.58;2.35;;;21.70;81.90;;;;;;4944303;28;20039;-73
2022/06/13 10:38:19;;;;;;;4.40;1.65;;;21.80;81.40;;;;;;4948335;28;20026;-75
2022/06/13 10:40:45;;;;;;;6.30;2.05;;;22.00;81.00;;;;;;4948958;28;20035;-75
2022/06/13 10:43:12;;;;;;;6.13;2.20;;;22.10;79.90;;;;;;4948230;28;20035;-72
2022/06/13 10:45:40;;;;;;;16.95;2.38;;;22.10;80.20;;;;;;4945063;28;20098;-76
2022/06/13 10:48:19;;;;;;;5.90;1.83;;;22.20;79.20;;;;;;4948167;28;20019;-75
2022/06/13 10:50:53;;;;;;;6.72;2.33;;;22.30;78.50;;;;;;4948848;28;20043;-75
2022/06/13 10:53:36;;;;;;;6.22;2.22;;;22.30;78.50;;;;;;4942722;28;20175;-75
2022/06/13 10:56:07;;;;;;;5.32;1.58;;;22.40;78.20;;;;;;4956574;28;20165;-76
2022/06/13 10:58:51;;;;;;;7.65;2.22;;;22.40;77.50;;;;;;4952024;28;20081;-75
2022/06/13 11:01:29;;;;;;;8.68;2.33;;;22.40;76.60;;;;;;4947083;28;20039;-75
2022/06/13 11:04:05;;;;;;;9.18;2.28;;;22.50;76.60;;;;;;4951595;28;20361;-75
2022/06/13 11:06:39;;;;;;;4.20;1.92;;;22.50;75.60;;;;;;4953034;28;20081;-74
2022/06/13 11:09:36;;;;;;;8.45;1.65;;;22.50;75.30;;;;;;4967598;28;20023;-75
2022/06/13 11:12:12;;;;;;;4.28;1.92;;;22.60;75.40;;;;;;4959491;28;20027;-74
2022/06/13 11:23:54;;;;;;;3.80;1.55;;;22.30;75.10;;;;;;4951174;28;20054;-75
2022/06/13 11:29:06;;;;;;;6.22;1.85;;;22.50;74.10;;;;;;4950791;28;20048;-74
2022/06/13 11:31:33;;;;;;;6.95;2.13;;;22.60;72.30;;;;;;4949690;28;20027;-74
2022/06/13 11:34:28;;;;;;;6.65;2.15;;;22.50;73.00;;;;;;4953395;28;20046;-75
2022/06/13 11:37:12;;;;;;;5.18;1.90;;;22.50;72.70;;;;;;4944419;28;20043;-74
2022/06/13 11:39:41;;;;;;;;;;;22.60;72.30;;;;;;4947755;28;20059;-75
2022/06/13 11:42:16;;;;;;;5.30;1.70;;;22.70;72.40;;;;;;4948480;28;20005;-74
2022/06/13 11:44:47;;;;;;;3.17;1.77;;;22.80;71.60;;;;;;4950364;28;20055;-74
2022/06/13 11:47:13;;;;;;;5.80;1.75;;;22.90;70.70;;;;;;4951428;28;20055;-73
2022/06/13 11:49:43;;;;;;;9.00;2.25;;;22.90;71.10;;;;;;4947263;28;20499;-74
2022/06/13 11:52:11;;;;;;;4.30;1.60;;;22.90;70.00;;;;;;4950665;28;20035;-75
2022/06/13 11:54:46;;;;;;;4.22;2.00;;;22.90;70.70;;;;;;4951053;28;20039;-74
2022/06/13 11:57:36;;;;;;;5.20;1.98;;;22.90;71.50;;;;;;4950717;28;20076;-74
2022/06/13 12:00:20;;;;;;;7.25;2.85;;;22.90;70.30;;;;;;4955062;28;20035;-74
2022/06/13 12:02:49;;;;;;;5.10;1.23;;;22.90;70.30;;;;;;4952401;28;20061;-74
2022/06/13 12:05:31;;;;;;;4.70;1.70;;;22.90;69.80;;;;;;4951815;28;20114;-74
2022/06/13 12:08:15;;;;;;;3.90;1.63;;;23.00;70.00;;;;;;4952607;28;20027;-74
2022/06/13 12:10:52;;;;;;;5.50;1.75;;;23.10;70.20;;;;;;4949690;28;20031;-74
2022/06/13 12:13:20;;;;;;;3.40;2.22;;;23.30;69.70;;;;;;4946422;28;20038;-74
2022/06/13 12:16:21;;;;;;;5.63;2.75;;;23.20;67.70;;;;;;4950888;28;20031;-74
2022/06/13 12:19:04;;;;;;;4.28;1.70;;;23.20;67.40;;;;;;4951785;28;20514;-73
2022/06/13 12:21:53;;;;;;;4.10;1.73;;;23.10;67.20;;;;;;4950142;28;20026;-74
2022/06/13 12:24:43;;;;;;;2.22;1.15;;;22.90;67.50;;;;;;4943742;28;20139;-74
2022/06/13 12:27:18;;;;;;;4.03;1.33;;;22.80;67.50;;;;;;4943519;28;20547;-73
2022/06/13 12:30:10;;;;;;;5.72;2.42;;;22.70;66.50;;;;;;4948506;28;20019;-74
2022/06/13 12:32:47;;;;;;;5.45;2.22;;;22.50;67.00;;;;;;4949102;28;20089;-76
2022/06/13 12:35:46;;;;;;;2.67;1.40;;;22.40;67.30;;;;;;4945796;28;20138;-74
2022/06/13 12:38:35;;;;;;;4.65;1.33;;;22.50;66.40;;;;;;4947143;28;20024;-73
2022/06/13 12:41:46;;;;;;;3.22;1.15;;;22.60;65.50;;;;;;4942796;28;20031;-74
2022/06/13 12:44:41;;;;;;;4.63;1.50;;;22.70;66.20;;;;;;4942438;28;20051;-74
2022/06/13 12:47:10;;;;;;;3.10;1.17;;;22.80;65.30;;;;;;4943233;28;20030;-73
2022/06/13 12:50:06;;;;;;;3.35;1.25;;;22.90;65.10;;;;;;4948564;28;20101;-74
2022/06/13 12:52:54;;;;;;;4.63;1.05;;;22.90;65.00;;;;;;4951513;28;20102;-73
2022/06/13 12:55:31;;;;;;;2.90;1.40;;;22.80;65.40;;;;;;4944834;28;20027;-73
2022/06/13 12:58:22;;;;;;;3.03;1.52;;;22.70;66.00;;;;;;4948424;28;20489;-72
2022/06/13 13:00:50;;;;;;;4.18;1.40;;;22.70;64.80;;;;;;4946469;28;20555;-73
2022/06/13 13:03:31;;;;;;;1.33;1.10;;;22.70;65.40;;;;;;4943979;28;20023;-73
2022/06/13 13:06:15;;;;;;;2.90;1.30;;;22.70;64.20;;;;;;4945885;28;20054;-73
2022/06/13 13:09:19;;;;;;;5.95;1.30;;;22.80;64.80;;;;;;4945690;28;20473;-74
2022/06/13 13:11:58;;;;;;;4.80;1.52;;;22.80;64.30;;;;;;4951272;28;20509;-74
2022/06/13 13:14:53;;;;;;;4.70;1.80;;;22.80;64.50;;;;;;4964152;28;20380;-74
2022/06/13 13:17:34;;;;;;;6.32;1.42;;;23.00;64.40;;;;;;4940107;28;20054;-74
2022/06/13 13:20:03;;;;;;;4.22;1.40;;;23.10;63.00;;;;;;4944062;28;20031;-74
2022/06/13 13:22:58;;;;;;;3.88;1.48;;;23.20;62.80;;;;;;4950645;28;20114;-74
2022/06/13 13:25:33;;;;;;;3.70;1.55;;;23.30;63.20;;;;;;4945888;28;20024;-74
2022/06/13 13:28:12;;;;;;;6.18;1.80;;;23.50;62.50;;;;;;4941672;28;20039;-75
2022/06/13 13:30:52;;;;;;;4.63;1.42;;;23.50;62.50;;;;;;4948094;28;20166;-74
2022/06/13 13:33:21;;;;;;;3.92;1.20;;;23.60;62.30;;;;;;4944726;28;20027;-73
2022/06/13 13:36:28;;;;;;;2.35;1.27;;;23.50;61.50;;;;;;4942608;28;20027;-74
2022/06/13 13:39:01;;;;;;;7.68;1.98;;;23.40;62.10;;;;;;4938155;28;20047;-73
2022/06/13 13:41:36;;;;;;;1.80;1.23;;;23.20;60.70;;;;;;4946297;28;20035;-75
2022/06/13 13:44:10;;;;;;;2.60;1.25;;;23.20;61.80;;;;;;4947169;28;20027;-74
2022/06/13 13:46:43;;;;;;;3.75;1.50;;;23.20;61.60;;;;;;4949894;28;20058;-73
2022/06/13 13:49:29;;;;;;;6.97;1.90;;;23.20;62.00;;;;;;4945674;28;20027;-73
2022/06/13 13:52:02;;;;;;;7.30;1.27;;;23.20;61.40;;;;;;4945062;28;20039;-75
2022/06/13 13:54:54;;;;;;;6.00;1.70;;;23.30;61.50;;;;;;4947617;28;20019;-73
2022/06/13 13:58:00;;;;;;;2.83;1.30;;;23.20;60.90;;;;;;4949569;28;20686;-78